Time;durP1;ratioP1;P1;durP2;ratioP2;P2;SDS_P1;SDS_P2;PMS_P1;PMS_P2;Temp;Humidity;BMP_temperature;BMP_pressure;BME280_temperature;BME280_humidity;BME280_pressure;Samples;Min_cycle;Max_cycle;Signal;HPM_P1;HPM_P2
2023/11/28 00:00:11;;;;;;;13.47;7.60;;;2.10;99.90;;;;;;4882661;29;20249;-72
2023/11/28 00:02:39;;;;;;;16.67;7.77;;;2.10;99.90;;;;;;4851434;29;20189;-71
2023/11/28 00:05:05;;;;;;;15.87;7.03;;;1.90;99.90;;;;;;4849907;29;20501;-74
2023/11/28 00:07:33;;;;;;;14.33;7.30;;;1.90;99.90;;;;;;4851858;29;20185;-72
2023/11/28 00:09:59;;;;;;;14.47;6.60;;;1.90;99.90;;;;;;4853597;29;20426;-72
2023/11/28 00:12:26;;;;;;;16.67;6.67;;;1.80;99.90;;;;;;4850118;29;20427;-71
2023/11/28 00:14:51;;;;;;;13.33;5.53;;;1.80;99.90;;;;;;4874160;29;20453;-71
2023/11/28 00:17:17;;;;;;;9.07;4.70;;;1.70;99.90;;;;;;4845870;29;20515;-73
2023/11/28 00:19:42;;;;;;;12.20;5.43;;;1.70;99.90;;;;;;4847962;29;20299;-71
2023/11/28 00:22:09;;;;;;;10.03;5.23;;;1.70;99.90;;;;;;4848565;29;20284;-71
2023/11/28 00:24:35;;;;;;;13.10;5.30;;;1.70;99.90;;;;;;4877677;29;20897;-70
2023/11/28 00:27:01;;;;;;;12.00;5.60;;;1.60;99.90;;;;;;4846701;29;20597;-71
2023/11/28 00:29:26;;;;;;;11.37;5.60;;;1.60;99.90;;;;;;4848061;29;20185;-71
2023/11/28 00:31:53;;;;;;;11.93;5.57;;;1.60;99.90;;;;;;4848853;29;20197;-71
2023/11/28 00:34:24;;;;;;;14.37;5.40;;;1.50;99.90;;;;;;4849040;29;20269;-70
2023/11/28 00:36:50;;;;;;;16.33;6.77;;;1.50;99.90;;;;;;4848600;29;20437;-69
2023/11/28 00:39:16;;;;;;;18.20;6.77;;;1.50;99.90;;;;;;4848926;29;20466;-72
2023/11/28 00:41:42;;;;;;;19.23;7.20;;;1.40;99.90;;;;;;4878825;29;20430;-72
2023/11/28 00:44:09;;;;;;;18.77;7.40;;;1.40;99.90;;;;;;4845185;29;20418;-71
2023/11/28 00:46:40;;;;;;;23.40;8.53;;;1.40;99.90;;;;;;4845862;29;20466;-71
2023/11/28 00:49:05;;;;;;;15.50;6.73;;;1.40;99.90;;;;;;4852393;29;20419;-73
2023/11/28 00:51:32;;;;;;;22.40;8.27;;;1.40;99.90;;;;;;4849994;29;20438;-72
2023/11/28 00:53:58;;;;;;;21.60;9.10;;;1.30;99.90;;;;;;4846198;29;20425;-71
2023/11/28 00:56:24;;;;;;;18.37;7.90;;;1.30;99.90;;;;;;4850394;29;20689;-70
2023/11/28 00:58:52;;;;;;;24.30;8.20;;;1.30;99.90;;;;;;4881117;29;20430;-71
2023/11/28 01:01:18;;;;;;;20.10;7.80;;;1.30;99.90;;;;;;4851336;29;20185;-71
2023/11/28 01:03:44;;;;;;;24.10;8.23;;;1.30;99.90;;;;;;4848999;29;20739;-70
2023/11/28 01:06:10;;;;;;;27.03;8.67;;;1.20;99.90;;;;;;4847769;29;20473;-71
2023/11/28 01:08:36;;;;;;;26.93;8.73;;;1.20;99.90;;;;;;4846598;29;20434;-71
2023/11/28 01:11:02;;;;;;;15.43;7.20;;;1.20;99.90;;;;;;4846965;29;20284;-71
2023/11/28 01:13:28;;;;;;;24.47;8.20;;;1.20;99.90;;;;;;4842948;29;20249;-70
2023/11/28 01:15:54;;;;;;;17.93;8.80;;;1.20;99.90;;;;;;4845415;29;20458;-72
2023/11/28 01:18:20;;;;;;;25.70;8.27;;;1.20;99.90;;;;;;4848461;29;20483;-72
2023/11/28 01:20:46;;;;;;;18.50;7.33;;;1.20;99.90;;;;;;4847834;29;20911;-71
2023/11/28 01:23:12;;;;;;;21.37;9.10;;;1.20;99.90;;;;;;4847707;29;20498;-70
2023/11/28 01:25:39;;;;;;;18.37;7.60;;;1.20;99.90;;;;;;4848576;29;20223;-71
2023/11/28 01:28:05;;;;;;;16.13;7.80;;;1.10;99.90;;;;;;4845019;29;20785;-71
2023/11/28 01:30:30;;;;;;;22.33;7.37;;;1.20;99.90;;;;;;4840995;29;20230;-71
2023/11/28 01:32:56;;;;;;;18.90;7.43;;;1.20;99.90;;;;;;4851220;29;20593;-69
2023/11/28 01:35:23;;;;;;;23.00;8.87;;;1.20;99.90;;;;;;4850259;29;20221;-71
2023/11/28 01:37:49;;;;;;;23.37;7.30;;;1.20;99.90;;;;;;4848021;29;20197;-73
2023/11/28 01:40:14;;;;;;;17.70;6.70;;;1.20;99.90;;;;;;4851704;29;20465;-71
2023/11/28 01:42:40;;;;;;;15.13;6.77;;;1.10;99.90;;;;;;4834815;29;20212;-71
2023/11/28 01:45:06;;;;;;;16.80;6.17;;;1.10;99.90;;;;;;4849403;29;20215;-70
2023/11/28 01:47:33;;;;;;;16.90;7.10;;;1.10;99.90;;;;;;4846982;29;20197;-73
2023/11/28 01:50:00;;;;;;;15.50;5.93;;;1.10;99.90;;;;;;4876943;29;20462;-70
2023/11/28 01:52:27;;;;;;;18.43;7.00;;;1.10;99.90;;;;;;4878860;29;20458;-72
2023/11/28 01:54:53;;;;;;;21.33;7.20;;;1.00;99.90;;;;;;4848268;29;20458;-70
2023/11/28 01:57:19;;;;;;;20.13;6.77;;;1.00;99.90;;;;;;4845421;29;20568;-72
2023/11/28 01:59:47;;;;;;;17.10;7.77;;;1.00;99.90;;;;;;4841170;29;20458;-71
2023/11/28 02:02:14;;;;;;;18.20;6.60;;;1.00;99.90;;;;;;4846800;29;20455;-71
2023/11/28 02:04:41;;;;;;;16.57;7.30;;;0.90;99.90;;;;;;4847278;29;20518;-70
2023/11/28 02:07:07;;;;;;;17.33;6.50;;;0.90;99.90;;;;;;4845746;29;20427;-70
2023/11/28 02:09:32;;;;;;;21.37;7.53;;;0.90;99.90;;;;;;4847833;29;20434;-71
2023/11/28 02:11:58;;;;;;;22.70;7.17;;;0.90;99.90;;;;;;4848067;29;20490;-70
2023/11/28 02:14:24;;;;;;;22.50;7.40;;;0.90;99.90;;;;;;4846039;29;20196;-73
2023/11/28 02:16:50;;;;;;;22.90;7.50;;;0.90;99.90;;;;;;4838516;29;20564;-73
2023/11/28 02:19:15;;;;;;;19.87;7.67;;;1.00;99.90;;;;;;4847878;29;20219;-72
2023/11/28 02:21:41;;;;;;;26.43;8.13;;;1.00;99.90;;;;;;4847990;29;20203;-71
2023/11/28 02:24:12;;;;;;;23.03;8.53;;;1.00;99.90;;;;;;4848665;29;20752;-72
2023/11/28 02:26:40;;;;;;;27.30;9.30;;;1.00;99.90;;;;;;4849925;29;20236;-72
2023/11/28 02:29:06;;;;;;;21.40;8.13;;;1.00;99.90;;;;;;4843143;29;20485;-71
2023/11/28 02:31:31;;;;;;;23.60;9.70;;;1.10;99.90;;;;;;4834285;29;20481;-72
2023/11/28 02:33:58;;;;;;;25.40;9.40;;;1.10;99.90;;;;;;4834344;29;20189;-72
2023/11/28 02:36:24;;;;;;;23.33;9.27;;;1.10;99.90;;;;;;4850245;29;20535;-73
2023/11/28 02:38:52;;;;;;;28.50;9.43;;;1.10;99.90;;;;;;4851061;29;20453;-72
2023/11/28 02:41:19;;;;;;;32.60;9.73;;;1.10;99.90;;;;;;4851917;29;20454;-73
2023/11/28 02:43:45;;;;;;;21.00;8.60;;;1.10;99.90;;;;;;4844055;29;20486;-71
2023/11/28 02:46:11;;;;;;;27.20;9.50;;;1.10;99.90;;;;;;4873938;29;20518;-72
2023/11/28 02:48:40;;;;;;;27.20;9.10;;;1.10;99.90;;;;;;4880192;29;20512;-73
2023/11/28 02:51:11;;;;;;;21.37;8.97;;;1.10;99.90;;;;;;4852203;29;20605;-72
2023/11/28 02:53:38;;;;;;;26.13;9.93;;;1.10;99.90;;;;;;4850663;29;20445;-72
2023/11/28 02:56:06;;;;;;;29.70;10.53;;;1.10;99.90;;;;;;4846413;29;20504;-72
2023/11/28 02:58:31;;;;;;;26.00;9.93;;;1.10;99.90;;;;;;4843902;29;20461;-74
2023/11/28 03:00:57;;;;;;;25.87;10.33;;;1.10;99.90;;;;;;4850805;29;20481;-73
2023/11/28 03:03:23;;;;;;;24.97;10.50;;;1.10;99.90;;;;;;4851950;29;20237;-73
2023/11/28 03:05:50;;;;;;;32.50;10.87;;;1.10;99.90;;;;;;4851671;29;20239;-71
2023/11/28 03:08:15;;;;;;;25.10;9.53;;;1.20;99.90;;;;;;4882457;29;20212;-71
2023/11/28 03:10:41;;;;;;;24.30;9.43;;;1.20;99.90;;;;;;4853296;29;20835;-72
2023/11/28 03:13:07;;;;;;;28.67;9.83;;;1.10;99.90;;;;;;4847068;29;20489;-71
2023/11/28 03:15:32;;;;;;;24.70;9.33;;;1.10;99.90;;;;;;4872406;29;20633;-70
2023/11/28 03:17:58;;;;;;;18.33;8.83;;;1.10;99.90;;;;;;4847349;29;20201;-70
2023/11/28 03:20:24;;;;;;;24.63;10.07;;;1.10;99.90;;;;;;4847746;29;20628;-70
2023/11/28 03:22:49;;;;;;;22.97;9.90;;;1.10;99.90;;;;;;4876989;29;20209;-70
2023/11/28 03:25:15;;;;;;;24.97;9.47;;;1.00;99.90;;;;;;4849382;29;20215;-70
2023/11/28 03:27:41;;;;;;;21.40;8.73;;;1.00;99.90;;;;;;4841686;29;20190;-70
2023/11/28 03:30:07;;;;;;;23.20;8.70;;;1.00;99.90;;;;;;4838024;29;20209;-70
2023/11/28 03:32:33;;;;;;;16.10;7.43;;;1.00;99.90;;;;;;4846596;29;20201;-70
2023/11/28 03:34:58;;;;;;;13.50;7.80;;;1.00;99.90;;;;;;4847000;29;20522;-70
2023/11/28 03:37:26;;;;;;;19.97;7.93;;;1.00;99.90;;;;;;4847232;29;20239;-70
2023/11/28 03:39:51;;;;;;;13.20;7.40;;;1.00;99.90;;;;;;4846848;29;20407;-70
2023/11/28 03:42:18;;;;;;;13.63;7.07;;;0.90;99.90;;;;;;4843678;29;20443;-70
2023/11/28 03:44:43;;;;;;;13.90;6.80;;;0.90;99.90;;;;;;4845414;29;20213;-70
2023/11/28 03:47:09;;;;;;;13.00;7.13;;;0.90;99.90;;;;;;4846101;29;20484;-70
2023/11/28 03:49:35;;;;;;;12.80;6.57;;;0.90;99.90;;;;;;4847208;29;20620;-70
2023/11/28 03:52:00;;;;;;;13.60;7.27;;;0.90;99.90;;;;;;4846548;29;20204;-70
2023/11/28 03:54:26;;;;;;;15.53;6.70;;;0.90;99.90;;;;;;4839495;29;20193;-70
2023/11/28 03:56:51;;;;;;;14.17;7.60;;;0.90;99.90;;;;;;4844529;29;20185;-71
2023/11/28 03:59:17;;;;;;;13.83;7.77;;;0.80;99.90;;;;;;4873476;29;20216;-71
2023/11/28 04:01:44;;;;;;;13.77;7.67;;;0.80;99.90;;;;;;4847252;29;20195;-72
2023/11/28 04:04:10;;;;;;;12.67;7.53;;;0.90;99.90;;;;;;4846024;29;20418;-70
2023/11/28 04:06:36;;;;;;;13.63;7.20;;;0.90;99.90;;;;;;4845483;29;20496;-70
2023/11/28 04:09:04;;;;;;;15.33;7.33;;;0.90;99.90;;;;;;4844981;29;20189;-70
2023/11/28 04:11:29;;;;;;;19.70;7.90;;;0.90;99.90;;;;;;4844862;29;20437;-70
2023/11/28 04:13:55;;;;;;;19.10;8.67;;;0.90;99.90;;;;;;4875082;29;20423;-71
2023/11/28 04:16:20;;;;;;;16.70;8.83;;;0.80;99.90;;;;;;4875303;29;20209;-70
2023/11/28 04:18:50;;;;;;;19.07;10.10;;;0.80;99.90;;;;;;4845775;29;20196;-70
2023/11/28 04:21:19;;;;;;;19.00;8.00;;;0.80;99.90;;;;;;4874996;29;20567;-70
2023/11/28 04:23:45;;;;;;;19.70;10.37;;;0.90;99.90;;;;;;4875689;29;20418;-71
2023/11/28 04:26:10;;;;;;;19.30;9.87;;;0.90;99.90;;;;;;4844807;29;20527;-70
2023/11/28 04:28:37;;;;;;;21.50;9.73;;;0.90;99.90;;;;;;4835372;29;20425;-69
2023/11/28 04:31:04;;;;;;;20.13;10.60;;;0.80;99.90;;;;;;4839422;29;20917;-70
2023/11/28 04:33:32;;;;;;;22.27;9.90;;;0.90;99.90;;;;;;4875303;29;20441;-70
2023/11/28 04:35:58;;;;;;;19.10;10.80;;;0.90;99.90;;;;;;4875180;29;20499;-70
2023/11/28 04:38:23;;;;;;;24.53;11.10;;;0.90;99.90;;;;;;4875821;29;20196;-70
2023/11/28 04:40:49;;;;;;;21.53;10.70;;;0.80;99.90;;;;;;4845733;29;20621;-70
2023/11/28 04:43:15;;;;;;;25.30;11.50;;;0.80;99.90;;;;;;4835910;29;20258;-70
2023/11/28 04:45:41;;;;;;;23.63;11.43;;;0.90;99.90;;;;;;4837294;29;20557;-70
2023/11/28 04:48:06;;;;;;;23.57;10.70;;;0.90;99.90;;;;;;4845775;29;20255;-70
2023/11/28 04:50:32;;;;;;;23.70;10.93;;;0.90;99.90;;;;;;4844252;29;20557;-70
2023/11/28 04:52:58;;;;;;;25.27;12.47;;;0.90;99.90;;;;;;4844262;29;20517;-70
2023/11/28 04:55:24;;;;;;;34.30;14.00;;;0.80;99.90;;;;;;4845654;29;20358;-71
2023/11/28 04:57:49;;;;;;;34.03;14.97;;;0.80;99.90;;;;;;4837289;29;20284;-71
2023/11/28 05:00:15;;;;;;;29.67;14.50;;;0.80;99.90;;;;;;4844801;29;20631;-71
2023/11/28 05:02:41;;;;;;;34.07;15.70;;;0.80;99.90;;;;;;4877073;29;20200;-71
2023/11/28 05:05:08;;;;;;;33.57;15.20;;;0.80;99.90;;;;;;4847138;29;20462;-71
2023/11/28 05:07:34;;;;;;;27.97;13.47;;;0.80;99.90;;;;;;4880595;29;20429;-70
2023/11/28 05:09:59;;;;;;;32.50;14.80;;;0.80;99.90;;;;;;4851657;29;20525;-70
2023/11/28 05:12:25;;;;;;;31.90;13.90;;;0.80;99.90;;;;;;4876252;29;20229;-70
2023/11/28 05:14:51;;;;;;;36.47;15.80;;;0.80;99.90;;;;;;4841228;29;20335;-70
2023/11/28 05:17:18;;;;;;;37.87;15.20;;;0.90;99.90;;;;;;4843574;29;20426;-72
2023/11/28 05:19:44;;;;;;;34.30;15.47;;;0.90;99.90;;;;;;4846606;29;20780;-71
2023/11/28 05:22:10;;;;;;;37.57;18.57;;;0.90;99.90;;;;;;4846182;29;20247;-72
2023/11/28 05:24:36;;;;;;;55.53;20.13;;;0.90;99.90;;;;;;4875916;29;20196;-71
2023/11/28 05:27:02;;;;;;;33.43;17.20;;;0.90;99.90;;;;;;4875449;29;20418;-70
2023/11/28 05:29:27;;;;;;;45.20;18.73;;;0.90;99.90;;;;;;4842041;29;20608;-71
2023/11/28 05:31:53;;;;;;;43.07;19.23;;;0.90;99.90;;;;;;4845582;29;20497;-70
2023/11/28 05:34:19;;;;;;;39.33;16.57;;;0.80;99.90;;;;;;4876454;29;20189;-70
2023/11/28 05:36:45;;;;;;;38.80;17.70;;;0.80;99.90;;;;;;4877764;29;20786;-70
2023/11/28 05:39:12;;;;;;;34.97;16.27;;;0.80;99.90;;;;;;4846755;29;20295;-69
2023/11/28 05:41:38;;;;;;;40.37;17.20;;;0.80;99.90;;;;;;4846991;29;20482;-71
2023/11/28 05:44:04;;;;;;;37.30;18.03;;;0.80;99.90;;;;;;4841334;29;20434;-71
2023/11/28 05:46:30;;;;;;;38.20;17.13;;;0.80;99.90;;;;;;4842681;29;20296;-72
2023/11/28 05:48:56;;;;;;;33.47;16.10;;;0.80;99.90;;;;;;4848385;29;20465;-73
2023/11/28 05:51:22;;;;;;;34.03;16.60;;;0.80;99.90;;;;;;4876788;29;20197;-71
2023/11/28 05:53:48;;;;;;;38.07;16.63;;;0.80;99.90;;;;;;4846567;29;20437;-71
2023/11/28 05:56:14;;;;;;;36.60;15.50;;;0.80;99.90;;;;;;4846697;29;20216;-71
2023/11/28 05:58:40;;;;;;;36.13;16.13;;;0.80;99.90;;;;;;4872546;29;20199;-70
2023/11/28 06:01:07;;;;;;;36.73;16.70;;;0.80;99.90;;;;;;4845742;29;20217;-71
2023/11/28 06:03:32;;;;;;;37.90;16.97;;;0.80;99.90;;;;;;4847254;29;20465;-73
2023/11/28 06:06:01;;;;;;;44.73;17.23;;;0.90;99.90;;;;;;4831280;29;20839;-70
2023/11/28 06:08:27;;;;;;;40.27;17.43;;;0.90;99.90;;;;;;4845822;29;20417;-70
2023/11/28 06:10:53;;;;;;;43.10;18.07;;;0.90;99.90;;;;;;4876576;29;20200;-70
2023/11/28 06:13:18;;;;;;;48.03;21.70;;;0.90;99.90;;;;;;4876903;29;20197;-70
2023/11/28 06:15:44;;;;;;;49.17;19.83;;;0.90;99.90;;;;;;4875629;29;20239;-70
2023/11/28 06:18:10;;;;;;;56.70;23.17;;;0.90;99.90;;;;;;4880197;29;20498;-70
2023/11/28 06:20:37;;;;;;;64.93;23.90;;;0.80;99.90;;;;;;4881258;29;20609;-72
2023/11/28 06:23:03;;;;;;;55.20;22.50;;;0.80;99.90;;;;;;4880886;29;20481;-73
2023/11/28 06:25:29;;;;;;;54.97;22.20;;;0.80;99.90;;;;;;4847429;29;20454;-74
2023/11/28 06:27:55;;;;;;;56.67;23.30;;;0.80;99.90;;;;;;4846243;29;20438;-73
2023/11/28 06:30:21;;;;;;;65.53;24.13;;;0.80;99.90;;;;;;4855690;29;20438;-72
2023/11/28 06:32:47;;;;;;;58.83;22.97;;;0.80;99.90;;;;;;4850182;29;20423;-72
2023/11/28 06:35:13;;;;;;;60.37;21.70;;;0.80;99.90;;;;;;4849618;29;20221;-72
2023/11/28 06:37:39;;;;;;;58.73;24.70;;;0.70;99.90;;;;;;4852000;29;20238;-71
2023/11/28 06:40:05;;;;;;;60.90;22.70;;;0.70;99.90;;;;;;4852318;29;20496;-75
2023/11/28 06:42:31;;;;;;;62.37;23.60;;;0.70;99.90;;;;;;4850946;29;20205;-73
2023/11/28 06:44:56;;;;;;;51.87;21.70;;;0.70;99.90;;;;;;4849373;29;20461;-72
2023/11/28 06:47:22;;;;;;;58.67;22.97;;;0.60;99.90;;;;;;4845886;29;20460;-74
2023/11/28 06:49:48;;;;;;;63.60;25.90;;;0.60;99.90;;;;;;4852597;29;20609;-73
2023/11/28 06:52:14;;;;;;;68.03;25.10;;;0.60;99.90;;;;;;4854128;29;20633;-73
2023/11/28 06:54:40;;;;;;;60.90;25.83;;;0.50;99.90;;;;;;4851513;29;20232;-72
2023/11/28 06:57:06;;;;;;;69.27;24.60;;;0.50;99.90;;;;;;4849752;29;20276;-72
2023/11/28 06:59:32;;;;;;;65.03;23.07;;;0.60;99.90;;;;;;4844891;29;20477;-74
2023/11/28 07:01:59;;;;;;;65.87;24.87;;;0.60;99.90;;;;;;4882115;29;20192;-77
2023/11/28 07:04:24;;;;;;;61.07;24.80;;;0.60;99.90;;;;;;4835260;29;20680;-74
2023/11/28 07:06:50;;;;;;;63.97;23.50;;;0.60;99.90;;;;;;4852323;29;20225;-72
2023/11/28 07:09:16;;;;;;;66.60;25.30;;;0.60;99.90;;;;;;4852497;29;20193;-73
2023/11/28 07:11:42;;;;;;;85.20;27.90;;;0.60;99.90;;;;;;4882216;29;20585;-73
2023/11/28 07:14:08;;;;;;;76.40;27.33;;;0.60;99.90;;;;;;4843547;29;20442;-73
2023/11/28 07:16:34;;;;;;;69.10;25.60;;;0.60;99.90;;;;;;4843877;29;20533;-72
2023/11/28 07:19:00;;;;;;;75.97;28.47;;;0.60;99.90;;;;;;4850509;29;20185;-73
2023/11/28 07:21:26;;;;;;;79.90;28.90;;;0.60;99.90;;;;;;4851229;29;20485;-72
2023/11/28 07:23:52;;;;;;;73.80;27.67;;;0.60;99.90;;;;;;4850928;29;20200;-73
2023/11/28 07:26:19;;;;;;;76.53;28.83;;;0.60;99.90;;;;;;4851066;29;20449;-73
2023/11/28 07:28:45;;;;;;;71.37;26.57;;;0.60;99.90;;;;;;4850372;29;20274;-74
2023/11/28 07:31:13;;;;;;;61.97;26.67;;;0.60;99.90;;;;;;4847624;29;20482;-73
2023/11/28 07:33:39;;;;;;;87.90;31.33;;;0.60;99.90;;;;;;4851080;29;20954;-73
2023/11/28 07:36:12;;;;;;;75.23;28.90;;;0.70;99.90;;;;;;4851007;29;20481;-74
2023/11/28 07:38:38;;;;;;;101.60;29.43;;;0.70;99.90;;;;;;4852095;29;20281;-74
2023/11/28 07:41:04;;;;;;;65.23;26.40;;;0.60;99.90;;;;;;4851281;29;20485;-73
2023/11/28 07:43:33;;;;;;;87.70;30.00;;;0.60;99.90;;;;;;4845025;29;20434;-73
2023/11/28 07:45:58;;;;;;;92.30;34.13;;;0.60;99.90;;;;;;4845679;29;20213;-73
2023/11/28 07:48:24;;;;;;;74.77;28.03;;;0.60;99.90;;;;;;4852973;29;20478;-75
2023/11/28 07:50:49;;;;;;;89.07;29.37;;;0.60;99.90;;;;;;4851095;29;20189;-75
2023/11/28 07:53:15;;;;;;;82.57;30.23;;;0.60;99.90;;;;;;4851708;29;20197;-72
2023/11/28 07:55:41;;;;;;;73.93;28.03;;;0.60;99.90;;;;;;4851265;29;20220;-73
2023/11/28 07:58:08;;;;;;;82.33;29.70;;;0.60;99.90;;;;;;4846763;29;20205;-74
2023/11/28 08:00:35;;;;;;;63.07;25.10;;;0.60;99.90;;;;;;4883888;29;20219;-73
2023/11/28 08:03:02;;;;;;;63.10;26.30;;;0.60;99.90;;;;;;4839866;29;20441;-74
2023/11/28 08:05:28;;;;;;;51.93;23.50;;;0.60;99.90;;;;;;4852958;29;20876;-72
2023/11/28 08:07:54;;;;;;;56.70;23.40;;;0.50;99.90;;;;;;4852418;29;20449;-73
2023/11/28 08:10:21;;;;;;;64.67;25.67;;;0.50;99.90;;;;;;4882949;29;20193;-73
2023/11/28 08:12:46;;;;;;;51.50;23.63;;;0.40;99.90;;;;;;4847071;29;20205;-72
2023/11/28 08:15:12;;;;;;;63.63;26.40;;;0.40;99.90;;;;;;4881469;29;20807;-76
2023/11/28 08:17:38;;;;;;;53.10;23.93;;;0.40;99.90;;;;;;4852717;29;20553;-74
2023/11/28 08:20:04;;;;;;;49.10;23.47;;;0.40;99.90;;;;;;4851782;29;20229;-72
2023/11/28 08:22:30;;;;;;;47.93;24.13;;;0.40;99.90;;;;;;4853436;29;20532;-71
2023/11/28 08:24:55;;;;;;;49.60;24.73;;;0.30;99.90;;;;;;4852842;29;20517;-73
2023/11/28 08:27:21;;;;;;;71.57;25.43;;;0.40;99.90;;;;;;4853671;29;20434;-72
2023/11/28 08:29:47;;;;;;;50.40;21.90;;;0.30;99.90;;;;;;4845019;29;20181;-73
2023/11/28 08:32:12;;;;;;;52.10;23.40;;;0.30;99.90;;;;;;4852766;29;20260;-73
2023/11/28 08:34:38;;;;;;;50.83;22.00;;;0.30;99.90;;;;;;4854486;29;20244;-72
2023/11/28 08:37:04;;;;;;;49.40;21.40;;;0.30;99.90;;;;;;4861267;29;20197;-74
2023/11/28 08:39:30;;;;;;;74.93;23.43;;;0.30;99.90;;;;;;4839869;29;20231;-73
2023/11/28 08:41:55;;;;;;;35.50;19.10;;;0.30;99.90;;;;;;4852449;29;20182;-74
2023/11/28 08:44:21;;;;;;;40.77;19.90;;;0.40;99.90;;;;;;4847195;29;20216;-74
2023/11/28 08:46:48;;;;;;;56.17;22.00;;;0.40;99.90;;;;;;4851954;29;20340;-71
2023/11/28 08:49:14;;;;;;;43.90;18.97;;;0.40;99.90;;;;;;4852725;29;20801;-72
2023/11/28 08:51:41;;;;;;;47.43;15.80;;;0.30;99.90;;;;;;4850668;29;20430;-71
2023/11/28 08:54:06;;;;;;;32.13;17.40;;;0.20;99.90;;;;;;4851901;29;20430;-73
2023/11/28 08:56:32;;;;;;;28.70;13.70;;;0.20;99.90;;;;;;4853019;29;20479;-75
2023/11/28 08:58:58;;;;;;;31.77;14.63;;;0.20;99.90;;;;;;4849927;29;20201;-72
2023/11/28 09:01:24;;;;;;;38.73;16.93;;;0.20;99.90;;;;;;4844837;29;20573;-72
2023/11/28 09:03:52;;;;;;;44.47;16.07;;;0.30;99.90;;;;;;4852059;29;20195;-73
2023/11/28 09:06:18;;;;;;;23.77;14.50;;;0.30;99.90;;;;;;4852764;29;20237;-72
2023/11/28 09:08:44;;;;;;;53.27;18.67;;;0.20;99.90;;;;;;4884708;29;20553;-73
2023/11/28 09:11:12;;;;;;;48.53;15.70;;;0.30;99.90;;;;;;4850941;29;20437;-72
2023/11/28 09:13:38;;;;;;;25.90;13.33;;;0.30;99.90;;;;;;4879813;29;20601;-73
2023/11/28 09:16:08;;;;;;;27.67;14.30;;;0.40;99.90;;;;;;4842548;29;20462;-74
2023/11/28 09:18:36;;;;;;;23.03;12.40;;;0.40;99.90;;;;;;4880137;29;20209;-73
2023/11/28 09:21:04;;;;;;;21.40;12.40;;;0.50;99.90;;;;;;4882127;29;20466;-72
2023/11/28 09:23:30;;;;;;;25.87;11.20;;;0.50;99.90;;;;;;4854250;29;20434;-73
2023/11/28 09:25:57;;;;;;;23.53;12.00;;;0.40;99.90;;;;;;4881822;29;20482;-74
2023/11/28 09:28:22;;;;;;;25.00;13.23;;;0.30;99.90;;;;;;4842417;29;20431;-74
2023/11/28 09:30:48;;;;;;;35.47;13.83;;;0.40;99.90;;;;;;4853064;29;20429;-74
2023/11/28 09:33:14;;;;;;;19.27;10.20;;;0.50;99.90;;;;;;4852754;29;20227;-73
2023/11/28 09:35:44;;;;;;;21.00;13.57;;;0.60;99.90;;;;;;4844182;29;20631;-73
2023/11/28 09:38:13;;;;;;;21.90;14.37;;;0.90;99.90;;;;;;4868198;29;20559;-73
2023/11/28 09:40:39;;;;;;;19.20;9.77;;;0.90;99.90;;;;;;4852831;29;20474;-72
2023/11/28 09:43:06;;;;;;;30.47;11.17;;;0.60;99.90;;;;;;4833583;29;20466;-74
2023/11/28 09:45:38;;;;;;;20.53;10.00;;;0.50;99.90;;;;;;4827087;29;20439;-73
2023/11/28 09:48:09;;;;;;;22.60;9.57;;;0.50;99.90;;;;;;4853667;29;20433;-72
2023/11/28 09:50:35;;;;;;;15.20;8.40;;;0.50;99.90;;;;;;4854515;29;20452;-76
2023/11/28 09:53:02;;;;;;;10.90;8.13;;;0.50;99.90;;;;;;4848669;29;20430;-74
2023/11/28 09:55:29;;;;;;;13.50;8.87;;;0.60;99.90;;;;;;4851934;29;20453;-72
2023/11/28 09:57:56;;;;;;;10.83;6.87;;;0.70;99.90;;;;;;4845845;29;20450;-74
2023/11/28 10:00:22;;;;;;;8.30;6.43;;;0.70;99.90;;;;;;4842366;29;20586;-73
2023/11/28 10:02:54;;;;;;;13.50;9.60;;;0.80;99.90;;;;;;4842663;29;20422;-73
2023/11/28 10:05:20;;;;;;;15.97;10.20;;;1.10;99.90;;;;;;4851888;29;20488;-71
2023/11/28 10:07:51;;;;;;;15.73;9.47;;;1.30;99.90;;;;;;4836262;29;20415;-73
2023/11/28 10:10:19;;;;;;;13.73;7.20;;;1.40;99.90;;;;;;4836076;29;20430;-71
2023/11/28 10:12:45;;;;;;;14.83;9.90;;;1.60;99.90;;;;;;4833053;29;20429;-74
2023/11/28 10:15:11;;;;;;;12.80;9.80;;;1.90;99.90;;;;;;4883501;29;20450;-72
2023/11/28 10:17:38;;;;;;;13.80;9.73;;;1.90;99.90;;;;;;4860326;29;20727;-74
2023/11/28 10:20:06;;;;;;;14.30;9.30;;;2.10;99.90;;;;;;4856674;29;20480;-73
2023/11/28 10:22:37;;;;;;;11.80;7.60;;;2.10;99.90;;;;;;4855876;29;20444;-74
2023/11/28 10:25:09;;;;;;;9.73;8.10;;;2.10;99.90;;;;;;4854664;29;20446;-73
2023/11/28 10:27:46;;;;;;;11.00;7.50;;;2.20;99.90;;;;;;4845451;29;20490;-73
2023/11/28 10:30:16;;;;;;;8.53;6.50;;;2.30;99.90;;;;;;4855174;29;20432;-74
2023/11/28 10:32:42;;;;;;;8.67;6.30;;;2.40;99.90;;;;;;4857817;29;20430;-76
2023/11/28 10:35:09;;;;;;;9.77;6.63;;;2.50;99.90;;;;;;4857881;29;20437;-76
2023/11/28 10:37:39;;;;;;;7.17;5.83;;;2.40;99.90;;;;;;4850370;29;20466;-72
2023/11/28 10:40:06;;;;;;;6.40;5.63;;;2.40;99.90;;;;;;4855250;29;20453;-72
2023/11/28 10:42:32;;;;;;;7.90;4.10;;;2.50;99.90;;;;;;4855576;29;20419;-76
2023/11/28 10:44:59;;;;;;;4.20;3.80;;;2.30;99.90;;;;;;4839803;29;20510;-72
2023/11/28 10:47:29;;;;;;;8.57;5.57;;;2.30;99.90;;;;;;4855002;29;20418;-75
2023/11/28 10:49:56;;;;;;;6.00;5.27;;;2.40;99.90;;;;;;4858269;29;20417;-75
2023/11/28 10:52:26;;;;;;;6.60;5.90;;;2.60;99.90;;;;;;4857291;29;20518;-73
2023/11/28 10:54:55;;;;;;;7.83;5.90;;;2.70;99.90;;;;;;4855585;29;20530;-74
2023/11/28 10:57:27;;;;;;;9.10;5.57;;;2.70;99.90;;;;;;4852307;29;20423;-75
2023/11/28 11:00:02;;;;;;;6.90;5.13;;;2.70;99.90;;;;;;4825992;29;20965;-74
2023/11/28 11:02:29;;;;;;;7.87;5.80;;;2.70;99.90;;;;;;4840057;29;20501;-76
2023/11/28 11:04:55;;;;;;;6.67;5.73;;;2.70;99.90;;;;;;4857701;29;20466;-72
2023/11/28 11:07:21;;;;;;;6.60;5.23;;;2.70;99.90;;;;;;4850817;29;20442;-73
2023/11/28 11:09:47;;;;;;;5.83;4.20;;;2.70;99.90;;;;;;4858144;29;20461;-73
2023/11/28 11:12:15;;;;;;;6.03;4.80;;;2.70;99.90;;;;;;4838429;29;20189;-74
2023/11/28 11:15:04;;;;;;;5.13;4.30;;;2.80;99.90;;;;;;4847329;29;20583;-75
2023/11/28 11:17:45;;;;;;;5.43;4.20;;;2.90;99.90;;;;;;4850116;29;20446;-74
2023/11/28 11:20:14;;;;;;;6.60;4.70;;;2.80;99.90;;;;;;4886872;29;20758;-74
2023/11/28 11:22:44;;;;;;;4.50;3.87;;;2.80;99.90;;;;;;4853387;29;20446;-74
2023/11/28 11:25:10;;;;;;;6.70;4.13;;;2.80;99.90;;;;;;4876456;29;20470;-76
2023/11/28 11:27:35;;;;;;;4.67;4.10;;;2.80;99.90;;;;;;4855888;29;20426;-74
2023/11/28 11:30:05;;;;;;;6.50;4.23;;;2.80;99.90;;;;;;4871321;29;20189;-75
2023/11/28 11:32:36;;;;;;;4.67;3.47;;;2.80;99.90;;;;;;4854626;29;20244;-76
2023/11/28 11:35:08;;;;;;;5.33;3.87;;;2.80;99.90;;;;;;4861648;29;20441;-75
2023/11/28 11:37:34;;;;;;;5.40;3.83;;;2.90;99.90;;;;;;4859274;29;20437;-76
2023/11/28 11:40:00;;;;;;;5.13;3.17;;;2.90;99.90;;;;;;4855888;29;20546;-76
2023/11/28 11:42:29;;;;;;;4.70;3.63;;;3.00;99.90;;;;;;4850389;29;20434;-73
2023/11/28 11:45:00;;;;;;;5.00;3.30;;;3.10;99.90;;;;;;4853318;29;20459;-76
2023/11/28 11:47:27;;;;;;;4.90;3.00;;;3.00;99.90;;;;;;4825399;29;20445;-72
2023/11/28 11:49:54;;;;;;;5.10;2.97;;;3.00;99.90;;;;;;4856947;29;20445;-74
2023/11/28 11:52:24;;;;;;;3.40;2.90;;;3.00;99.90;;;;;;4853130;29;20461;-76
2023/11/28 11:55:12;;;;;;;5.33;3.80;;;3.00;99.90;;;;;;4855899;29;20466;-73
2023/11/28 11:57:38;;;;;;;4.80;3.47;;;3.10;99.90;;;;;;4845645;29;20478;-72
2023/11/28 12:00:06;;;;;;;3.03;2.73;;;3.10;99.90;;;;;;4851356;29;20465;-76
2023/11/28 12:02:42;;;;;;;4.20;2.20;;;3.20;99.90;;;;;;4856037;29;20429;-74
2023/11/28 12:05:09;;;;;;;3.60;2.87;;;3.10;99.90;;;;;;4853933;29;20604;-73
2023/11/28 12:07:36;;;;;;;3.80;2.63;;;3.20;99.90;;;;;;4837955;29;20435;-75
2023/11/28 12:10:09;;;;;;;4.90;2.90;;;3.30;99.90;;;;;;4873404;29;20434;-74
2023/11/28 12:12:35;;;;;;;3.67;2.23;;;3.30;99.90;;;;;;4851543;29;20445;-74
2023/11/28 12:15:02;;;;;;;3.13;2.60;;;3.30;99.90;;;;;;4842513;29;20522;-75
2023/11/28 12:17:28;;;;;;;3.43;2.63;;;3.40;99.90;;;;;;4844175;29;20418;-72
2023/11/28 12:19:53;;;;;;;4.17;2.37;;;3.30;99.90;;;;;;4871090;29;20507;-75
2023/11/28 12:22:19;;;;;;;4.27;3.10;;;3.30;99.90;;;;;;4886710;29;20197;-77
2023/11/28 12:24:45;;;;;;;4.80;2.80;;;3.30;99.90;;;;;;4838033;29;20253;-73
2023/11/28 12:27:11;;;;;;;3.40;2.60;;;3.30;99.90;;;;;;4854668;29;20197;-75
2023/11/28 12:29:38;;;;;;;3.73;2.70;;;3.20;99.90;;;;;;4871659;29;20197;-77
2023/11/28 12:32:07;;;;;;;4.07;3.20;;;3.10;99.90;;;;;;4838123;29;20446;-74
2023/11/28 12:34:34;;;;;;;4.20;3.10;;;3.10;99.90;;;;;;4849755;29;20430;-76
2023/11/28 12:37:00;;;;;;;8.40;4.43;;;3.10;99.90;;;;;;4854848;29;20434;-76
2023/11/28 12:39:28;;;;;;;7.37;4.60;;;3.10;99.90;;;;;;4856775;29;20508;-75